sensor_id;sensor_type;location;lat;lon;timestamp;P1;durP1;ratioP1;P2;durP2;ratioP2
26598;SDS011;14240;51.064;16.612;2023-07-20T00:01:28;9.40;;;3.50;;
26598;SDS011;14240;51.064;16.612;2023-07-20T00:03:54;9.23;;;3.78;;
26598;SDS011;14240;51.064;16.612;2023-07-20T00:06:23;10.65;;;3.55;;
26598;SDS011;14240;51.064;16.612;2023-07-20T00:08:49;10.07;;;4.57;;
26598;SDS011;14240;51.064;16.612;2023-07-20T00:11:16;17.77;;;6.95;;
26598;SDS011;14240;51.064;16.612;2023-07-20T00:13:41;17.13;;;5.80;;
26598;SDS011;14240;51.064;16.612;2023-07-20T00:16:07;74.88;;;33.08;;
26598;SDS011;14240;51.064;16.612;2023-07-20T00:18:33;45.17;;;22.00;;
26598;SDS011;14240;51.064;16.612;2023-07-20T00:20:59;43.25;;;22.25;;
26598;SDS011;14240;51.064;16.612;2023-07-20T00:23:27;40.28;;;20.08;;
26598;SDS011;14240;51.064;16.612;2023-07-20T00:25:53;18.33;;;8.48;;
26598;SDS011;14240;51.064;16.612;2023-07-20T00:28:19;9.50;;;5.40;;
26598;SDS011;14240;51.064;16.612;2023-07-20T00:30:45;8.18;;;3.38;;
26598;SDS011;14240;51.064;16.612;2023-07-20T00:33:10;10.20;;;3.72;;
26598;SDS011;14240;51.064;16.612;2023-07-20T00:35:37;10.30;;;3.58;;
26598;SDS011;14240;51.064;16.612;2023-07-20T00:38:03;8.75;;;4.03;;
26598;SDS011;14240;51.064;16.612;2023-07-20T00:40:35;6.18;;;3.38;;
26598;SDS011;14240;51.064;16.612;2023-07-20T00:43:04;10.50;;;3.67;;
26598;SDS011;14240;51.064;16.612;2023-07-20T00:45:29;7.68;;;3.97;;
26598;SDS011;14240;51.064;16.612;2023-07-20T00:47:56;14.52;;;6.18;;
26598;SDS011;14240;51.064;16.612;2023-07-20T00:50:22;12.35;;;4.90;;
26598;SDS011;14240;51.064;16.612;2023-07-20T00:52:49;12.27;;;4.20;;
26598;SDS011;14240;51.064;16.612;2023-07-20T00:55:15;12.90;;;3.90;;
26598;SDS011;14240;51.064;16.612;2023-07-20T00:57:40;9.45;;;4.28;;
26598;SDS011;14240;51.064;16.612;2023-07-20T01:00:06;10.15;;;4.90;;
26598;SDS011;14240;51.064;16.612;2023-07-20T01:02:33;7.82;;;3.63;;
26598;SDS011;14240;51.064;16.612;2023-07-20T01:04:58;11.23;;;3.60;;
26598;SDS011;14240;51.064;16.612;2023-07-20T01:07:37;8.25;;;3.95;;
26598;SDS011;14240;51.064;16.612;2023-07-20T01:12:58;16.05;;;4.60;;
26598;SDS011;14240;51.064;16.612;2023-07-20T01:15:26;11.38;;;4.47;;
26598;SDS011;14240;51.064;16.612;2023-07-20T01:17:52;12.35;;;5.32;;
26598;SDS011;14240;51.064;16.612;2023-07-20T01:20:18;15.88;;;6.50;;
26598;SDS011;14240;51.064;16.612;2023-07-20T01:31:18;9.43;;;5.55;;
26598;SDS011;14240;51.064;16.612;2023-07-20T01:33:57;8.20;;;4.53;;
26598;SDS011;14240;51.064;16.612;2023-07-20T01:36:26;9.60;;;4.20;;
26598;SDS011;14240;51.064;16.612;2023-07-20T01:38:54;9.73;;;4.13;;
26598;SDS011;14240;51.064;16.612;2023-07-20T01:41:21;7.95;;;4.07;;
26598;SDS011;14240;51.064;16.612;2023-07-20T01:43:46;10.90;;;4.60;;
26598;SDS011;14240;51.064;16.612;2023-07-20T01:46:12;8.88;;;4.05;;
26598;SDS011;14240;51.064;16.612;2023-07-20T01:48:38;9.32;;;3.90;;
26598;SDS011;14240;51.064;16.612;2023-07-20T01:51:03;6.35;;;3.65;;
26598;SDS011;14240;51.064;16.612;2023-07-20T01:53:29;9.40;;;4.28;;
26598;SDS011;14240;51.064;16.612;2023-07-20T01:55:55;7.30;;;3.95;;
26598;SDS011;14240;51.064;16.612;2023-07-20T01:58:21;9.20;;;5.28;;
26598;SDS011;14240;51.064;16.612;2023-07-20T02:00:47;14.32;;;5.43;;
26598;SDS011;14240;51.064;16.612;2023-07-20T02:03:12;10.75;;;4.15;;
26598;SDS011;14240;51.064;16.612;2023-07-20T02:05:38;10.15;;;4.75;;
26598;SDS011;14240;51.064;16.612;2023-07-20T02:08:04;7.55;;;3.78;;
26598;SDS011;14240;51.064;16.612;2023-07-20T02:10:29;10.15;;;4.65;;
26598;SDS011;14240;51.064;16.612;2023-07-20T02:12:55;16.13;;;5.82;;
26598;SDS011;14240;51.064;16.612;2023-07-20T02:15:21;15.65;;;5.57;;
26598;SDS011;14240;51.064;16.612;2023-07-20T02:17:47;11.30;;;5.28;;
26598;SDS011;14240;51.064;16.612;2023-07-20T02:20:13;7.70;;;4.93;;
26598;SDS011;14240;51.064;16.612;2023-07-20T02:22:39;13.55;;;4.20;;
26598;SDS011;14240;51.064;16.612;2023-07-20T02:25:05;8.70;;;4.10;;
26598;SDS011;14240;51.064;16.612;2023-07-20T02:27:32;10.43;;;3.90;;
26598;SDS011;14240;51.064;16.612;2023-07-20T02:29:58;7.95;;;3.58;;
26598;SDS011;14240;51.064;16.612;2023-07-20T02:32:24;13.30;;;3.60;;
26598;SDS011;14240;51.064;16.612;2023-07-20T02:34:49;7.07;;;3.35;;
26598;SDS011;14240;51.064;16.612;2023-07-20T02:37:16;9.52;;;3.80;;
26598;SDS011;14240;51.064;16.612;2023-07-20T02:39:41;8.77;;;3.97;;
26598;SDS011;14240;51.064;16.612;2023-07-20T02:42:07;12.15;;;4.47;;
26598;SDS011;14240;51.064;16.612;2023-07-20T02:44:33;8.90;;;4.60;;
26598;SDS011;14240;51.064;16.612;2023-07-20T02:46:58;7.50;;;3.75;;
26598;SDS011;14240;51.064;16.612;2023-07-20T02:49:24;6.90;;;3.88;;
26598;SDS011;14240;51.064;16.612;2023-07-20T02:51:49;10.52;;;3.55;;
26598;SDS011;14240;51.064;16.612;2023-07-20T02:54:15;9.57;;;3.60;;
26598;SDS011;14240;51.064;16.612;2023-07-20T02:56:41;11.50;;;4.25;;
26598;SDS011;14240;51.064;16.612;2023-07-20T02:59:07;12.80;;;4.70;;
26598;SDS011;14240;51.064;16.612;2023-07-20T03:01:33;10.23;;;4.47;;
26598;SDS011;14240;51.064;16.612;2023-07-20T03:03:59;15.95;;;4.40;;
26598;SDS011;14240;51.064;16.612;2023-07-20T03:06:25;16.33;;;3.88;;
26598;SDS011;14240;51.064;16.612;2023-07-20T03:08:50;10.27;;;4.35;;
26598;SDS011;14240;51.064;16.612;2023-07-20T03:13:44;12.30;;;4.78;;
26598;SDS011;14240;51.064;16.612;2023-07-20T03:16:10;8.77;;;4.65;;
26598;SDS011;14240;51.064;16.612;2023-07-20T03:18:40;10.50;;;4.22;;
26598;SDS011;14240;51.064;16.612;2023-07-20T03:21:06;14.98;;;4.40;;
26598;SDS011;14240;51.064;16.612;2023-07-20T03:23:33;11.60;;;4.00;;
26598;SDS011;14240;51.064;16.612;2023-07-20T03:26:00;9.15;;;4.50;;
26598;SDS011;14240;51.064;16.612;2023-07-20T03:28:25;10.65;;;4.55;;
26598;SDS011;14240;51.064;16.612;2023-07-20T03:30:54;13.98;;;5.13;;
26598;SDS011;14240;51.064;16.612;2023-07-20T03:33:30;12.05;;;4.40;;
26598;SDS011;14240;51.064;16.612;2023-07-20T03:35:56;15.18;;;4.93;;
26598;SDS011;14240;51.064;16.612;2023-07-20T03:38:22;15.57;;;5.15;;
26598;SDS011;14240;51.064;16.612;2023-07-20T03:40:52;14.60;;;5.55;;
26598;SDS011;14240;51.064;16.612;2023-07-20T03:43:25;26.25;;;5.68;;
26598;SDS011;14240;51.064;16.612;2023-07-20T03:45:51;16.15;;;6.40;;
26598;SDS011;14240;51.064;16.612;2023-07-20T03:48:18;19.98;;;6.60;;
26598;SDS011;14240;51.064;16.612;2023-07-20T03:50:46;19.25;;;5.85;;
26598;SDS011;14240;51.064;16.612;2023-07-20T03:53:14;25.10;;;5.60;;
26598;SDS011;14240;51.064;16.612;2023-07-20T03:55:40;13.75;;;5.82;;
26598;SDS011;14240;51.064;16.612;2023-07-20T03:58:07;17.80;;;6.35;;
26598;SDS011;14240;51.064;16.612;2023-07-20T04:00:33;17.00;;;6.57;;
26598;SDS011;14240;51.064;16.612;2023-07-20T04:02:59;13.55;;;6.47;;
26598;SDS011;14240;51.064;16.612;2023-07-20T04:05:25;21.10;;;7.35;;
26598;SDS011;14240;51.064;16.612;2023-07-20T04:07:51;18.38;;;6.50;;
26598;SDS011;14240;51.064;16.612;2023-07-20T04:10:17;21.60;;;6.72;;
26598;SDS011;14240;51.064;16.612;2023-07-20T04:12:44;24.73;;;7.95;;
26598;SDS011;14240;51.064;16.612;2023-07-20T04:15:10;21.33;;;7.85;;
26598;SDS011;14240;51.064;16.612;2023-07-20T04:17:35;16.13;;;7.10;;
26598;SDS011;14240;51.064;16.612;2023-07-20T04:20:01;17.35;;;6.70;;
26598;SDS011;14240;51.064;16.612;2023-07-20T04:22:27;25.15;;;7.32;;
26598;SDS011;14240;51.064;16.612;2023-07-20T04:24:53;16.25;;;7.40;;
26598;SDS011;14240;51.064;16.612;2023-07-20T04:27:19;13.68;;;7.13;;
26598;SDS011;14240;51.064;16.612;2023-07-20T04:29:44;21.67;;;7.70;;
26598;SDS011;14240;51.064;16.612;2023-07-20T04:32:10;20.80;;;7.70;;
26598;SDS011;14240;51.064;16.612;2023-07-20T04:34:35;24.20;;;7.80;;
26598;SDS011;14240;51.064;16.612;2023-07-20T04:37:02;30.45;;;8.77;;
26598;SDS011;14240;51.064;16.612;2023-07-20T04:39:31;21.83;;;8.73;;
26598;SDS011;14240;51.064;16.612;2023-07-20T04:41:57;21.23;;;8.75;;
26598;SDS011;14240;51.064;16.612;2023-07-20T04:44:23;19.30;;;7.88;;
26598;SDS011;14240;51.064;16.612;2023-07-20T04:46:48;27.48;;;8.82;;
26598;SDS011;14240;51.064;16.612;2023-07-20T04:49:14;30.80;;;8.68;;
26598;SDS011;14240;51.064;16.612;2023-07-20T04:51:39;26.42;;;8.52;;
26598;SDS011;14240;51.064;16.612;2023-07-20T04:54:05;26.08;;;7.97;;
26598;SDS011;14240;51.064;16.612;2023-07-20T04:56:30;18.20;;;8.13;;
26598;SDS011;14240;51.064;16.612;2023-07-20T04:58:56;20.42;;;8.60;;
26598;SDS011;14240;51.064;16.612;2023-07-20T05:01:22;16.50;;;7.40;;
26598;SDS011;14240;51.064;16.612;2023-07-20T05:03:48;19.20;;;8.30;;
26598;SDS011;14240;51.064;16.612;2023-07-20T05:06:14;20.48;;;8.00;;
26598;SDS011;14240;51.064;16.612;2023-07-20T05:08:40;15.88;;;7.57;;
26598;SDS011;14240;51.064;16.612;2023-07-20T05:11:06;19.70;;;8.27;;
26598;SDS011;14240;51.064;16.612;2023-07-20T05:13:32;17.73;;;7.88;;
26598;SDS011;14240;51.064;16.612;2023-07-20T05:15:58;21.20;;;7.75;;
26598;SDS011;14240;51.064;16.612;2023-07-20T05:18:24;22.17;;;8.35;;
26598;SDS011;14240;51.064;16.612;2023-07-20T05:20:50;20.75;;;9.15;;
26598;SDS011;14240;51.064;16.612;2023-07-20T05:23:19;17.58;;;8.68;;
26598;SDS011;14240;51.064;16.612;2023-07-20T05:25:54;21.08;;;9.20;;
26598;SDS011;14240;51.064;16.612;2023-07-20T05:28:21;23.25;;;8.70;;
26598;SDS011;14240;51.064;16.612;2023-07-20T05:30:47;19.75;;;7.45;;
26598;SDS011;14240;51.064;16.612;2023-07-20T05:33:12;24.70;;;7.63;;
26598;SDS011;14240;51.064;16.612;2023-07-20T05:35:38;21.13;;;7.80;;
26598;SDS011;14240;51.064;16.612;2023-07-20T05:38:04;13.38;;;7.40;;
26598;SDS011;14240;51.064;16.612;2023-07-20T05:40:31;15.25;;;7.10;;
26598;SDS011;14240;51.064;16.612;2023-07-20T05:42:57;15.95;;;6.60;;
26598;SDS011;14240;51.064;16.612;2023-07-20T05:45:23;17.48;;;7.38;;
26598;SDS011;14240;51.064;16.612;2023-07-20T05:47:49;23.08;;;8.75;;
26598;SDS011;14240;51.064;16.612;2023-07-20T05:50:15;25.65;;;9.70;;
26598;SDS011;14240;51.064;16.612;2023-07-20T05:52:40;17.08;;;7.93;;
26598;SDS011;14240;51.064;16.612;2023-07-20T05:55:06;17.58;;;7.47;;
26598;SDS011;14240;51.064;16.612;2023-07-20T05:57:32;18.98;;;7.88;;
26598;SDS011;14240;51.064;16.612;2023-07-20T05:59:58;21.40;;;9.02;;
26598;SDS011;14240;51.064;16.612;2023-07-20T06:02:24;19.58;;;11.77;;
26598;SDS011;14240;51.064;16.612;2023-07-20T06:04:50;22.10;;;12.30;;
26598;SDS011;14240;51.064;16.612;2023-07-20T06:07:15;20.45;;;13.63;;
26598;SDS011;14240;51.064;16.612;2023-07-20T06:09:41;16.70;;;9.68;;
26598;SDS011;14240;51.064;16.612;2023-07-20T06:12:07;14.75;;;9.48;;
26598;SDS011;14240;51.064;16.612;2023-07-20T06:14:33;13.77;;;9.02;;
26598;SDS011;14240;51.064;16.612;2023-07-20T06:16:59;19.80;;;9.68;;
26598;SDS011;14240;51.064;16.612;2023-07-20T06:19:25;13.10;;;8.45;;
26598;SDS011;14240;51.064;16.612;2023-07-20T06:21:50;15.05;;;9.70;;
26598;SDS011;14240;51.064;16.612;2023-07-20T06:24:16;20.23;;;8.98;;
26598;SDS011;14240;51.064;16.612;2023-07-20T06:26:42;11.27;;;8.52;;
26598;SDS011;14240;51.064;16.612;2023-07-20T06:29:08;14.00;;;7.47;;
26598;SDS011;14240;51.064;16.612;2023-07-20T06:31:34;10.88;;;7.60;;
26598;SDS011;14240;51.064;16.612;2023-07-20T06:34:00;16.90;;;7.63;;
26598;SDS011;14240;51.064;16.612;2023-07-20T06:36:26;10.02;;;6.55;;
26598;SDS011;14240;51.064;16.612;2023-07-20T06:38:52;15.07;;;6.35;;
26598;SDS011;14240;51.064;16.612;2023-07-20T06:41:18;12.23;;;5.93;;
26598;SDS011;14240;51.064;16.612;2023-07-20T06:43:44;8.18;;;6.18;;
26598;SDS011;14240;51.064;16.612;2023-07-20T06:46:10;11.98;;;5.93;;
26598;SDS011;14240;51.064;16.612;2023-07-20T06:48:35;16.60;;;5.97;;
26598;SDS011;14240;51.064;16.612;2023-07-20T06:51:01;9.43;;;5.80;;
26598;SDS011;14240;51.064;16.612;2023-07-20T06:53:27;7.68;;;5.90;;
26598;SDS011;14240;51.064;16.612;2023-07-20T06:55:53;7.50;;;5.53;;
26598;SDS011;14240;51.064;16.612;2023-07-20T06:58:19;12.50;;;6.10;;
26598;SDS011;14240;51.064;16.612;2023-07-20T07:00:46;12.18;;;6.10;;
26598;SDS011;14240;51.064;16.612;2023-07-20T07:03:12;11.65;;;5.65;;
26598;SDS011;14240;51.064;16.612;2023-07-20T07:05:38;10.35;;;5.13;;
26598;SDS011;14240;51.064;16.612;2023-07-20T07:08:04;9.98;;;6.15;;
26598;SDS011;14240;51.064;16.612;2023-07-20T07:10:30;9.70;;;5.82;;
26598;SDS011;14240;51.064;16.612;2023-07-20T07:12:56;9.43;;;5.95;;
26598;SDS011;14240;51.064;16.612;2023-07-20T07:15:22;7.95;;;5.68;;
26598;SDS011;14240;51.064;16.612;2023-07-20T07:17:47;8.90;;;5.68;;
26598;SDS011;14240;51.064;16.612;2023-07-20T07:20:13;10.18;;;6.25;;
26598;SDS011;14240;51.064;16.612;2023-07-20T07:22:38;8.10;;;6.07;;
26598;SDS011;14240;51.064;16.612;2023-07-20T07:25:04;10.25;;;6.30;;
26598;SDS011;14240;51.064;16.612;2023-07-20T07:27:30;10.18;;;6.55;;
26598;SDS011;14240;51.064;16.612;2023-07-20T07:29:56;12.20;;;7.40;;
26598;SDS011;14240;51.064;16.612;2023-07-20T07:32:21;8.80;;;6.80;;
26598;SDS011;14240;51.064;16.612;2023-07-20T07:34:47;10.25;;;7.28;;
26598;SDS011;14240;51.064;16.612;2023-07-20T07:37:13;8.55;;;6.15;;
26598;SDS011;14240;51.064;16.612;2023-07-20T07:39:39;8.23;;;6.78;;
26598;SDS011;14240;51.064;16.612;2023-07-20T07:42:05;10.77;;;5.70;;
26598;SDS011;14240;51.064;16.612;2023-07-20T07:44:31;7.65;;;6.40;;
26598;SDS011;14240;51.064;16.612;2023-07-20T07:46:56;11.35;;;7.45;;
26598;SDS011;14240;51.064;16.612;2023-07-20T07:49:22;7.00;;;5.30;;
26598;SDS011;14240;51.064;16.612;2023-07-20T07:51:48;10.25;;;4.22;;
26598;SDS011;14240;51.064;16.612;2023-07-20T07:54:14;4.30;;;3.65;;
26598;SDS011;14240;51.064;16.612;2023-07-20T07:56:39;6.13;;;4.03;;
26598;SDS011;14240;51.064;16.612;2023-07-20T07:59:05;6.45;;;4.30;;
26598;SDS011;14240;51.064;16.612;2023-07-20T08:01:31;5.60;;;4.07;;
26598;SDS011;14240;51.064;16.612;2023-07-20T08:03:57;6.95;;;4.30;;
26598;SDS011;14240;51.064;16.612;2023-07-20T08:06:23;7.15;;;4.50;;
26598;SDS011;14240;51.064;16.612;2023-07-20T08:08:49;4.90;;;4.22;;
26598;SDS011;14240;51.064;16.612;2023-07-20T08:11:15;9.98;;;4.65;;
26598;SDS011;14240;51.064;16.612;2023-07-20T08:13:42;5.38;;;4.70;;
26598;SDS011;14240;51.064;16.612;2023-07-20T08:16:08;10.32;;;4.22;;
26598;SDS011;14240;51.064;16.612;2023-07-20T08:18:34;9.55;;;4.57;;
26598;SDS011;14240;51.064;16.612;2023-07-20T08:21:00;6.97;;;4.30;;
26598;SDS011;14240;51.064;16.612;2023-07-20T08:23:25;5.57;;;4.55;;
26598;SDS011;14240;51.064;16.612;2023-07-20T08:25:52;8.60;;;4.15;;
26598;SDS011;14240;51.064;16.612;2023-07-20T08:28:18;5.85;;;3.65;;
26598;SDS011;14240;51.064;16.612;2023-07-20T08:30:48;6.45;;;3.45;;
26598;SDS011;14240;51.064;16.612;2023-07-20T08:33:14;7.13;;;3.45;;
26598;SDS011;14240;51.064;16.612;2023-07-20T08:35:41;5.28;;;3.13;;
26598;SDS011;14240;51.064;16.612;2023-07-20T08:38:08;5.10;;;3.35;;
26598;SDS011;14240;51.064;16.612;2023-07-20T08:40:35;3.30;;;3.00;;
26598;SDS011;14240;51.064;16.612;2023-07-20T08:43:05;4.55;;;3.42;;
26598;SDS011;14240;51.064;16.612;2023-07-20T08:45:32;5.88;;;3.40;;
26598;SDS011;14240;51.064;16.612;2023-07-20T08:47:59;8.15;;;3.30;;
26598;SDS011;14240;51.064;16.612;2023-07-20T08:50:30;2.80;;;2.33;;
26598;SDS011;14240;51.064;16.612;2023-07-20T08:52:56;3.28;;;2.60;;
26598;SDS011;14240;51.064;16.612;2023-07-20T08:55:24;6.28;;;2.65;;
26598;SDS011;14240;51.064;16.612;2023-07-20T08:57:52;4.10;;;2.83;;
26598;SDS011;14240;51.064;16.612;2023-07-20T09:00:22;4.28;;;2.80;;
26598;SDS011;14240;51.064;16.612;2023-07-20T09:02:52;4.32;;;1.95;;
26598;SDS011;14240;51.064;16.612;2023-07-20T09:05:18;2.60;;;1.95;;
26598;SDS011;14240;51.064;16.612;2023-07-20T09:07:45;5.55;;;1.75;;
26598;SDS011;14240;51.064;16.612;2023-07-20T09:10:11;2.97;;;1.58;;
26598;SDS011;14240;51.064;16.612;2023-07-20T09:12:38;2.53;;;2.08;;
26598;SDS011;14240;51.064;16.612;2023-07-20T09:15:08;5.03;;;2.50;;
26598;SDS011;14240;51.064;16.612;2023-07-20T09:17:35;3.85;;;2.08;;
26598;SDS011;14240;51.064;16.612;2023-07-20T09:20:06;7.28;;;2.47;;
26598;SDS011;14240;51.064;16.612;2023-07-20T09:22:35;3.83;;;2.08;;
26598;SDS011;14240;51.064;16.612;2023-07-20T09:25:05;2.53;;;2.20;;
26598;SDS011;14240;51.064;16.612;2023-07-20T09:27:39;3.72;;;1.90;;
26598;SDS011;14240;51.064;16.612;2023-07-20T09:30:06;2.58;;;2.38;;
26598;SDS011;14240;51.064;16.612;2023-07-20T09:35:28;4.13;;;1.70;;
26598;SDS011;14240;51.064;16.612;2023-07-20T09:38:00;4.22;;;1.80;;
26598;SDS011;14240;51.064;16.612;2023-07-20T09:40:26;2.38;;;1.70;;
26598;SDS011;14240;51.064;16.612;2023-07-20T09:42:53;2.20;;;1.73;;
26598;SDS011;14240;51.064;16.612;2023-07-20T09:45:29;2.10;;;1.90;;
26598;SDS011;14240;51.064;16.612;2023-07-20T09:48:03;2.10;;;1.73;;
26598;SDS011;14240;51.064;16.612;2023-07-20T09:50:32;3.65;;;1.80;;
26598;SDS011;14240;51.064;16.612;2023-07-20T09:52:58;3.10;;;2.07;;
26598;SDS011;14240;51.064;16.612;2023-07-20T09:55:27;2.30;;;1.92;;
26598;SDS011;14240;51.064;16.612;2023-07-20T09:57:54;2.65;;;2.03;;
26598;SDS011;14240;51.064;16.612;2023-07-20T10:00:21;3.40;;;2.08;;
26598;SDS011;14240;51.064;16.612;2023-07-20T10:02:47;2.83;;;2.35;;
26598;SDS011;14240;51.064;16.612;2023-07-20T10:05:16;2.75;;;2.17;;
26598;SDS011;14240;51.064;16.612;2023-07-20T10:07:44;3.88;;;2.50;;
26598;SDS011;14240;51.064;16.612;2023-07-20T10:10:13;5.20;;;2.70;;
26598;SDS011;14240;51.064;16.612;2023-07-20T10:12:42;4.28;;;2.75;;
26598;SDS011;14240;51.064;16.612;2023-07-20T10:15:13;2.75;;;2.30;;
26598;SDS011;14240;51.064;16.612;2023-07-20T10:17:47;3.20;;;2.90;;
26598;SDS011;14240;51.064;16.612;2023-07-20T10:20:23;4.45;;;3.03;;
26598;SDS011;14240;51.064;16.612;2023-07-20T10:22:50;4.43;;;2.63;;
26598;SDS011;14240;51.064;16.612;2023-07-20T10:25:18;3.30;;;2.97;;
26598;SDS011;14240;51.064;16.612;2023-07-20T10:27:47;3.25;;;2.95;;
26598;SDS011;14240;51.064;16.612;2023-07-20T10:30:13;4.35;;;2.70;;
26598;SDS011;14240;51.064;16.612;2023-07-20T10:32:40;3.97;;;2.80;;
26598;SDS011;14240;51.064;16.612;2023-07-20T10:40:24;3.95;;;2.90;;
26598;SDS011;14240;51.064;16.612;2023-07-20T10:42:50;3.88;;;2.63;;
26598;SDS011;14240;51.064;16.612;2023-07-20T10:45:21;3.35;;;2.58;;
26598;SDS011;14240;51.064;16.612;2023-07-20T10:47:46;3.45;;;2.60;;
26598;SDS011;14240;51.064;16.612;2023-07-20T10:50:12;3.40;;;2.53;;
26598;SDS011;14240;51.064;16.612;2023-07-20T10:52:39;2.55;;;2.30;;
26598;SDS011;14240;51.064;16.612;2023-07-20T10:55:13;2.95;;;1.88;;
26598;SDS011;14240;51.064;16.612;2023-07-20T10:57:40;2.47;;;2.28;;
26598;SDS011;14240;51.064;16.612;2023-07-20T11:00:09;5.13;;;2.28;;
26598;SDS011;14240;51.064;16.612;2023-07-20T11:02:46;2.88;;;1.92;;
26598;SDS011;14240;51.064;16.612;2023-07-20T11:05:32;2.63;;;1.38;;
26598;SDS011;14240;51.064;16.612;2023-07-20T11:08:05;2.90;;;1.50;;
26598;SDS011;14240;51.064;16.612;2023-07-20T11:10:35;2.35;;;1.95;;
26598;SDS011;14240;51.064;16.612;2023-07-20T11:13:16;2.60;;;2.40;;
26598;SDS011;14240;51.064;16.612;2023-07-20T11:16:08;4.90;;;2.45;;
26598;SDS011;14240;51.064;16.612;2023-07-20T11:18:33;2.88;;;2.50;;
26598;SDS011;14240;51.064;16.612;2023-07-20T11:21:06;4.15;;;2.95;;
26598;SDS011;14240;51.064;16.612;2023-07-20T11:23:34;5.22;;;3.05;;
26598;SDS011;14240;51.064;16.612;2023-07-20T11:26:04;3.50;;;2.50;;
26598;SDS011;14240;51.064;16.612;2023-07-20T11:28:29;7.53;;;2.03;;
26598;SDS011;14240;51.064;16.612;2023-07-20T11:30:55;3.78;;;1.90;;
26598;SDS011;14240;51.064;16.612;2023-07-20T11:33:21;6.18;;;2.15;;
26598;SDS011;14240;51.064;16.612;2023-07-20T11:35:48;3.35;;;2.03;;
26598;SDS011;14240;51.064;16.612;2023-07-20T11:38:15;2.47;;;1.45;;
26598;SDS011;14240;51.064;16.612;2023-07-20T11:40:44;2.15;;;1.40;;
26598;SDS011;14240;51.064;16.612;2023-07-20T11:43:12;2.08;;;1.55;;
26598;SDS011;14240;51.064;16.612;2023-07-20T11:45:38;2.03;;;1.60;;
26598;SDS011;14240;51.064;16.612;2023-07-20T11:48:04;2.08;;;1.50;;
26598;SDS011;14240;51.064;16.612;2023-07-20T11:50:30;1.85;;;1.70;;
26598;SDS011;14240;51.064;16.612;2023-07-20T11:52:56;2.40;;;1.65;;
26598;SDS011;14240;51.064;16.612;2023-07-20T11:55:22;1.77;;;1.65;;
26598;SDS011;14240;51.064;16.612;2023-07-20T11:58:01;2.38;;;2.15;;
26598;SDS011;14240;51.064;16.612;2023-07-20T12:00:31;2.17;;;1.98;;
26598;SDS011;14240;51.064;16.612;2023-07-20T12:02:58;3.42;;;2.00;;
26598;SDS011;14240;51.064;16.612;2023-07-20T12:05:24;2.38;;;2.10;;
26598;SDS011;14240;51.064;16.612;2023-07-20T12:07:49;3.67;;;2.20;;
26598;SDS011;14240;51.064;16.612;2023-07-20T12:10:27;3.70;;;1.83;;
26598;SDS011;14240;51.064;16.612;2023-07-20T12:12:53;3.60;;;2.22;;
26598;SDS011;14240;51.064;16.612;2023-07-20T12:17:46;2.13;;;1.88;;
26598;SDS011;14240;51.064;16.612;2023-07-20T12:22:55;3.63;;;1.70;;
26598;SDS011;14240;51.064;16.612;2023-07-20T12:25:36;3.70;;;2.20;;
26598;SDS011;14240;51.064;16.612;2023-07-20T12:28:24;2.78;;;2.05;;
26598;SDS011;14240;51.064;16.612;2023-07-20T12:30:50;4.90;;;2.60;;
26598;SDS011;14240;51.064;16.612;2023-07-20T12:33:21;1.92;;;1.75;;
26598;SDS011;14240;51.064;16.612;2023-07-20T12:35:47;1.98;;;1.63;;
26598;SDS011;14240;51.064;16.612;2023-07-20T12:38:14;2.15;;;1.70;;
26598;SDS011;14240;51.064;16.612;2023-07-20T12:40:41;3.10;;;1.80;;
26598;SDS011;14240;51.064;16.612;2023-07-20T12:43:07;3.22;;;1.85;;
26598;SDS011;14240;51.064;16.612;2023-07-20T12:45:33;2.13;;;1.60;;
26598;SDS011;14240;51.064;16.612;2023-07-20T12:47:59;2.95;;;1.50;;
26598;SDS011;14240;51.064;16.612;2023-07-20T12:50:24;2.00;;;1.70;;
26598;SDS011;14240;51.064;16.612;2023-07-20T12:52:51;3.00;;;1.60;;
26598;SDS011;14240;51.064;16.612;2023-07-20T12:55:17;2.80;;;2.25;;
26598;SDS011;14240;51.064;16.612;2023-07-20T12:57:43;1.70;;;1.60;;
26598;SDS011;14240;51.064;16.612;2023-07-20T13:00:09;2.78;;;1.90;;
26598;SDS011;14240;51.064;16.612;2023-07-20T13:02:37;1.77;;;1.55;;
26598;SDS011;14240;51.064;16.612;2023-07-20T13:05:03;1.52;;;1.30;;
26598;SDS011;14240;51.064;16.612;2023-07-20T13:07:29;1.73;;;1.50;;
26598;SDS011;14240;51.064;16.612;2023-07-20T13:10:00;2.40;;;1.50;;
26598;SDS011;14240;51.064;16.612;2023-07-20T13:12:30;2.28;;;1.30;;
26598;SDS011;14240;51.064;16.612;2023-07-20T13:14:56;1.70;;;1.60;;
26598;SDS011;14240;51.064;16.612;2023-07-20T13:17:25;4.10;;;1.70;;
26598;SDS011;14240;51.064;16.612;2023-07-20T13:19:51;1.75;;;1.63;;
26598;SDS011;14240;51.064;16.612;2023-07-20T13:22:17;1.80;;;1.60;;
26598;SDS011;14240;51.064;16.612;2023-07-20T13:24:44;2.10;;;1.83;;
26598;SDS011;14240;51.064;16.612;2023-07-20T13:27:19;2.13;;;1.57;;
26598;SDS011;14240;51.064;16.612;2023-07-20T13:29:45;1.98;;;1.77;;
26598;SDS011;14240;51.064;16.612;2023-07-20T13:32:14;2.47;;;1.70;;
26598;SDS011;14240;51.064;16.612;2023-07-20T13:34:40;4.65;;;1.65;;
26598;SDS011;14240;51.064;16.612;2023-07-20T13:37:06;2.38;;;1.60;;
26598;SDS011;14240;51.064;16.612;2023-07-20T13:39:32;2.30;;;1.80;;
26598;SDS011;14240;51.064;16.612;2023-07-20T13:41:57;4.50;;;1.67;;
26598;SDS011;14240;51.064;16.612;2023-07-20T13:44:23;2.38;;;1.55;;
26598;SDS011;14240;51.064;16.612;2023-07-20T13:46:49;3.92;;;1.70;;
26598;SDS011;14240;51.064;16.612;2023-07-20T13:49:14;1.90;;;1.60;;
26598;SDS011;14240;51.064;16.612;2023-07-20T13:51:43;2.50;;;1.55;;
26598;SDS011;14240;51.064;16.612;2023-07-20T13:54:09;1.50;;;1.40;;
26598;SDS011;14240;51.064;16.612;2023-07-20T13:59:02;2.20;;;1.30;;
26598;SDS011;14240;51.064;16.612;2023-07-20T14:01:27;3.40;;;1.30;;
26598;SDS011;14240;51.064;16.612;2023-07-20T14:03:54;3.83;;;1.50;;
26598;SDS011;14240;51.064;16.612;2023-07-20T14:06:20;3.30;;;1.40;;
26598;SDS011;14240;51.064;16.612;2023-07-20T14:08:46;4.38;;;1.42;;
26598;SDS011;14240;51.064;16.612;2023-07-20T14:11:12;1.55;;;1.45;;
26598;SDS011;14240;51.064;16.612;2023-07-20T14:13:38;1.85;;;1.58;;
26598;SDS011;14240;51.064;16.612;2023-07-20T14:16:04;1.55;;;1.33;;
26598;SDS011;14240;51.064;16.612;2023-07-20T14:18:30;2.03;;;1.40;;
26598;SDS011;14240;51.064;16.612;2023-07-20T14:20:56;4.60;;;1.50;;
26598;SDS011;14240;51.064;16.612;2023-07-20T14:23:21;1.83;;;1.52;;
26598;SDS011;14240;51.064;16.612;2023-07-20T14:25:47;3.05;;;1.30;;
26598;SDS011;14240;51.064;16.612;2023-07-20T14:28:13;1.20;;;1.10;;
26598;SDS011;14240;51.064;16.612;2023-07-20T14:30:39;1.83;;;1.13;;
26598;SDS011;14240;51.064;16.612;2023-07-20T14:35:33;1.20;;;1.10;;
26598;SDS011;14240;51.064;16.612;2023-07-20T14:37:59;1.45;;;1.35;;
26598;SDS011;14240;51.064;16.612;2023-07-20T14:40:25;3.65;;;1.50;;
26598;SDS011;14240;51.064;16.612;2023-07-20T14:42:50;5.22;;;1.50;;
26598;SDS011;14240;51.064;16.612;2023-07-20T14:45:17;2.20;;;1.40;;
26598;SDS011;14240;51.064;16.612;2023-07-20T14:47:43;1.38;;;1.20;;
26598;SDS011;14240;51.064;16.612;2023-07-20T14:50:08;1.30;;;1.10;;
26598;SDS011;14240;51.064;16.612;2023-07-20T14:52:35;5.60;;;2.22;;
26598;SDS011;14240;51.064;16.612;2023-07-20T14:55:00;4.57;;;1.42;;
26598;SDS011;14240;51.064;16.612;2023-07-20T14:57:26;3.75;;;1.58;;
26598;SDS011;14240;51.064;16.612;2023-07-20T14:59:52;3.88;;;2.45;;